Time;durP1;ratioP1;P1;durP2;ratioP2;P2;SDS_P1;SDS_P2;PMS_P1;PMS_P2;Temp;Humidity;BMP_temperature;BMP_pressure;BME280_temperature;BME280_humidity;BME280_pressure;Samples;Min_cycle;Max_cycle;Signal;HPM_P1;HPM_P2
2021/12/19 00:01:04;;;;;;;22.05;6.95;;;7.40;99.90;;;7.61;74.64;102132.78;4902043;29;20625;-67
2021/12/19 00:03:49;;;;;;;22.23;5.32;;;7.50;99.90;;;7.56;74.72;102135.09;4903621;29;20178;-69
2021/12/19 00:09:06;;;;;;;11.07;4.60;;;7.50;99.90;;;7.57;74.49;102134.09;4903569;29;20210;-69
2021/12/19 00:11:35;;;;;;;13.35;4.18;;;7.50;99.90;;;7.65;74.84;102140.41;4903786;29;20186;-68
2021/12/19 00:14:06;;;;;;;13.00;4.97;;;7.50;99.90;;;7.67;74.82;102122.25;4903392;29;20183;-69
2021/12/19 00:16:35;;;;;;;11.43;4.80;;;7.50;99.90;;;7.60;74.94;102110.41;4899281;29;20226;-70
2021/12/19 00:19:04;;;;;;;9.00;4.53;;;7.50;99.90;;;7.65;74.50;102116.16;4899428;29;20214;-69
2021/12/19 00:21:33;;;;;;;17.60;4.05;;;7.60;99.90;;;7.54;74.77;102111.03;4899046;29;20198;-69
2021/12/19 00:24:01;;;;;;;13.15;4.75;;;7.50;99.90;;;7.62;74.40;102102.16;4899051;29;20190;-69
2021/12/19 00:26:30;;;;;;;9.90;4.22;;;7.50;99.90;;;7.58;74.46;102098.94;4899224;29;20597;-68
2021/12/19 00:29:00;;;;;;;13.25;3.70;;;7.50;99.90;;;7.53;74.71;102092.31;4899791;29;20277;-67
2021/12/19 00:31:34;;;;;;;15.38;4.80;;;7.50;99.90;;;7.63;74.82;102102.03;4899280;29;20197;-69
2021/12/19 00:34:03;;;;;;;11.80;4.40;;;7.50;99.90;;;7.62;74.69;102092.25;4898668;29;20269;-67
2021/12/19 00:36:32;;;;;;;13.55;4.10;;;7.50;99.90;;;7.57;74.30;102099.94;4898773;29;20538;-66
2021/12/19 00:39:01;;;;;;;10.32;3.75;;;7.50;99.90;;;7.52;74.59;102087.91;4897055;29;20737;-69
2021/12/19 00:41:29;;;;;;;11.00;3.83;;;7.50;99.90;;;7.54;74.50;102083.25;4898318;29;20204;-71
2021/12/19 00:44:07;;;;;;;7.15;3.80;;;7.50;99.90;;;7.54;74.74;102083.25;4899431;29;20205;-69
2021/12/19 00:46:48;;;;;;;5.30;3.75;;;7.50;99.90;;;7.60;74.57;102079.94;4903067;29;20612;-66
2021/12/19 00:49:22;;;;;;;10.07;4.72;;;7.50;99.90;;;7.49;74.84;102080.16;4941751;23;20229;-66
2021/12/19 00:51:51;;;;;;;16.30;5.10;;;7.50;99.90;;;7.49;74.82;102072.94;4911059;29;20686;-65
2021/12/19 00:54:19;;;;;;;12.02;4.57;;;7.50;99.90;;;7.50;75.04;102079.16;4914545;29;20201;-65
2021/12/19 00:56:49;;;;;;;11.77;5.07;;;7.40;99.90;;;7.59;74.51;102081.78;4914581;29;20197;-66
2021/12/19 00:59:18;;;;;;;9.07;4.88;;;7.50;99.90;;;7.62;74.65;102080.63;4917111;29;20686;-64
2021/12/19 01:01:49;;;;;;;8.68;5.28;;;7.50;99.90;;;7.53;74.53;102065.38;4915992;29;20217;-66
2021/12/19 01:04:20;;;;;;;8.60;6.05;;;7.50;99.90;;;7.50;74.48;102052.22;4916026;29;20200;-66
2021/12/19 01:06:50;;;;;;;14.98;5.93;;;7.50;99.90;;;7.49;74.57;102070.25;4915739;29;20228;-67
2021/12/19 01:09:19;;;;;;;8.88;5.35;;;7.50;99.90;;;7.43;74.49;102060.91;4912515;29;20217;-65
2021/12/19 01:11:49;;;;;;;12.40;5.68;;;7.40;99.90;;;7.50;74.57;102068.38;4897250;29;20206;-66
2021/12/19 01:14:18;;;;;;;9.73;5.80;;;7.40;99.90;;;7.48;74.52;102067.69;4896913;29;20281;-66
2021/12/19 01:16:48;;;;;;;18.42;6.10;;;7.40;99.90;;;7.48;74.40;102048.84;4896924;29;20626;-65
2021/12/19 01:19:17;;;;;;;9.18;5.90;;;7.40;99.90;;;7.38;74.10;102068.59;4896928;29;20225;-65
2021/12/19 01:21:45;;;;;;;9.80;5.95;;;7.40;99.90;;;7.43;74.38;102052.00;4897220;29;20235;-65
2021/12/19 01:24:14;;;;;;;6.88;5.53;;;7.30;99.90;;;7.37;74.20;102050.75;4896690;29;20194;-66
2021/12/19 01:26:43;;;;;;;11.75;6.30;;;7.30;99.90;;;7.37;74.21;102042.66;4896653;29;20293;-66
2021/12/19 01:29:12;;;;;;;10.02;6.18;;;7.30;99.90;;;7.37;74.54;102037.28;4896675;29;20214;-67
2021/12/19 01:31:41;;;;;;;12.02;5.43;;;7.30;99.90;;;7.34;74.44;102024.13;4896617;29;20199;-66
2021/12/19 01:34:12;;;;;;;10.43;7.13;;;7.30;99.90;;;7.30;74.50;102049.69;4896870;29;20192;-65
2021/12/19 01:36:41;;;;;;;9.25;6.20;;;7.30;99.90;;;7.36;74.15;102027.50;4896411;29;20186;-65
2021/12/19 01:39:14;;;;;;;11.88;7.18;;;7.30;99.90;;;7.29;74.34;102018.38;4896556;29;20293;-65
2021/12/19 01:41:52;;;;;;;11.93;7.53;;;7.30;99.90;;;7.42;74.24;102021.50;4899719;29;20262;-65
2021/12/19 01:44:22;;;;;;;13.02;6.90;;;7.30;99.90;;;7.45;74.25;102025.75;4899019;29;20201;-65
2021/12/19 01:46:52;;;;;;;10.45;7.93;;;7.40;99.90;;;7.37;73.99;102017.59;4898406;29;20198;-65
2021/12/19 01:49:23;;;;;;;14.25;8.65;;;7.30;99.90;;;7.36;74.30;102003.28;4896526;29;20226;-65
2021/12/19 01:51:52;;;;;;;9.52;8.15;;;7.30;99.90;;;7.35;74.37;101993.53;4896390;29;20671;-64
2021/12/19 01:54:21;;;;;;;12.73;9.40;;;7.30;99.90;;;7.36;74.43;101997.03;4900251;29;20189;-65
2021/12/19 01:56:49;;;;;;;9.65;7.65;;;7.30;99.90;;;7.38;74.53;102008.50;4900440;29;20213;-65
2021/12/19 01:59:18;;;;;;;12.73;8.00;;;7.30;99.90;;;7.36;74.40;102000.56;4900124;29;20202;-66
2021/12/19 02:01:50;;;;;;;9.32;8.27;;;7.30;99.90;;;7.40;74.47;101996.59;4900799;29;20548;-65
2021/12/19 02:04:23;;;;;;;15.13;8.27;;;7.30;99.90;;;7.31;74.54;101975.13;4901308;29;20269;-65
2021/12/19 02:06:51;;;;;;;8.88;6.30;;;7.30;99.90;;;7.35;74.41;101977.38;4901791;29;20206;-65
2021/12/19 02:09:20;;;;;;;18.23;9.10;;;7.30;99.90;;;7.50;74.16;101979.50;4902973;29;20636;-65
2021/12/19 02:11:48;;;;;;;11.18;6.60;;;7.40;99.90;;;7.39;74.30;101972.50;4902834;29;20194;-66
2021/12/19 02:14:17;;;;;;;15.23;8.52;;;7.40;99.90;;;7.41;74.63;101971.34;4902615;29;20254;-64
2021/12/19 02:16:45;;;;;;;9.95;7.35;;;7.30;99.90;;;7.40;74.25;101974.22;4903271;29;20183;-64
2021/12/19 02:19:14;;;;;;;9.27;7.95;;;7.40;99.90;;;7.48;74.40;101976.09;4903040;29;20216;-66
2021/12/19 02:21:44;;;;;;;10.38;5.68;;;7.40;99.90;;;7.39;74.51;101976.03;4902191;29;20277;-65
2021/12/19 02:24:13;;;;;;;9.25;6.10;;;7.30;99.90;;;7.40;74.72;101988.53;4901661;29;20221;-66
2021/12/19 02:26:43;;;;;;;11.52;5.85;;;7.30;99.90;;;7.37;74.58;101986.13;4902037;29;20217;-64
2021/12/19 02:29:12;;;;;;;8.45;6.53;;;7.30;99.90;;;7.28;74.74;101992.44;4901947;29;20241;-65
2021/12/19 02:31:42;;;;;;;14.80;6.85;;;7.30;99.90;;;7.26;74.84;101989.03;4901139;29;20174;-65
2021/12/19 02:34:16;;;;;;;10.35;7.95;;;7.20;99.90;;;7.41;74.52;101987.50;4900882;29;20198;-66
2021/12/19 02:36:54;;;;;;;8.70;4.95;;;7.30;99.90;;;7.39;74.51;101994.06;4900703;29;20217;-66
2021/12/19 02:39:54;;;;;;;5.85;4.25;;;7.30;99.90;;;7.33;74.47;101983.88;4901192;29;20245;-67
2021/12/19 02:50:51;;;;;;;5.95;4.03;;;7.30;99.90;;;7.30;74.80;101963.53;4898900;29;20790;-65
2021/12/19 02:53:32;;;;;;;6.43;3.72;;;7.30;99.90;;;7.47;74.16;101964.50;4901187;29;20264;-65
2021/12/19 02:56:03;;;;;;;5.53;3.25;;;7.30;99.90;;;7.39;74.35;101967.97;4901146;29;20847;-66
2021/12/19 02:58:33;;;;;;;6.78;3.00;;;7.40;99.90;;;7.43;74.45;101969.34;4901151;29;20581;-64
2021/12/19 03:01:09;;;;;;;4.55;3.15;;;7.40;99.90;;;7.40;74.65;101950.81;4899882;29;20293;-65
2021/12/19 03:03:38;;;;;;;16.45;4.15;;;7.40;99.90;;;7.53;74.39;101939.63;4898833;29;20194;-64
2021/12/19 03:06:07;;;;;;;10.88;3.45;;;7.40;99.90;;;7.51;74.12;101917.38;4898739;29;20193;-65
2021/12/19 03:08:42;;;;;;;4.05;2.72;;;7.40;99.90;;;7.42;74.22;101927.25;4898756;29;20748;-66
2021/12/19 03:19:29;;;;;;;4.88;2.95;;;7.40;99.90;;;7.42;74.37;101918.31;4887340;29;20240;-66
2021/12/19 03:21:58;;;;;;;4.25;2.80;;;7.30;99.90;;;7.40;74.52;101899.66;4898607;29;20194;-64
2021/12/19 03:24:28;;;;;;;4.28;2.40;;;7.40;99.90;;;7.40;74.10;101909.56;4898800;29;20209;-66
2021/12/19 03:26:56;;;;;;;3.28;2.60;;;7.30;99.90;;;7.36;74.39;101905.47;4898669;29;20202;-64
2021/12/19 03:29:25;;;;;;;5.50;2.85;;;7.30;99.90;;;7.40;74.37;101910.41;4897454;29;20229;-66
2021/12/19 03:31:53;;;;;;;3.00;2.40;;;7.30;99.90;;;7.38;74.32;101911.56;4898621;29;20190;-65
2021/12/19 03:34:22;;;;;;;4.90;2.00;;;7.30;99.90;;;7.37;74.09;101909.88;4898805;29;20707;-64
2021/12/19 03:36:52;;;;;;;6.13;2.88;;;7.30;99.90;;;7.35;73.89;101918.13;4897161;29;20221;-65
2021/12/19 03:39:33;;;;;;;4.57;2.78;;;7.30;99.90;;;7.37;74.27;101916.09;4898675;29;20721;-65
2021/12/19 03:42:04;;;;;;;2.83;2.50;;;7.30;99.90;;;7.48;73.95;101909.63;4898369;29;20262;-65
2021/12/19 03:44:33;;;;;;;5.88;2.80;;;7.40;99.90;;;7.43;73.94;101915.47;4898522;29;20282;-63
2021/12/19 03:47:02;;;;;;;3.63;2.50;;;7.30;99.90;;;7.33;74.54;101908.50;4898148;29;20179;-64
2021/12/19 03:49:30;;;;;;;7.00;2.67;;;7.30;99.90;;;7.40;74.09;101894.25;4897922;29;20226;-66
2021/12/19 03:51:59;;;;;;;2.70;2.45;;;7.30;99.90;;;7.51;73.80;101905.75;4898074;29;20190;-64
2021/12/19 03:54:27;;;;;;;3.03;2.28;;;7.40;99.90;;;7.46;73.83;101903.53;4898036;29;20222;-64
2021/12/19 03:56:56;;;;;;;3.80;3.03;;;7.40;99.90;;;7.37;74.18;101899.94;4898139;29;20675;-65
2021/12/19 03:59:26;;;;;;;6.57;3.35;;;7.30;99.90;;;7.37;73.86;101902.63;4898306;29;20210;-65
2021/12/19 04:01:55;;;;;;;10.68;4.03;;;7.40;99.90;;;7.36;74.23;101898.25;4897813;29;20193;-66
2021/12/19 04:04:24;;;;;;;5.65;3.25;;;7.30;99.90;;;7.35;74.11;101885.81;4897754;29;20210;-65
2021/12/19 04:06:52;;;;;;;5.95;3.67;;;7.30;99.90;;;7.36;74.00;101883.94;4897726;29;20195;-65
2021/12/19 04:09:21;;;;;;;5.10;3.75;;;7.30;99.90;;;7.38;73.98;101900.78;4898042;29;20293;-65
2021/12/19 04:11:52;;;;;;;8.48;3.60;;;7.30;99.90;;;7.38;74.02;101892.72;4898126;29;20697;-64
2021/12/19 04:14:20;;;;;;;6.15;4.10;;;7.30;99.90;;;7.37;73.97;101889.16;4897899;29;20198;-66
2021/12/19 04:16:50;;;;;;;5.82;4.30;;;7.30;99.90;;;7.35;74.04;101887.66;4897483;29;20201;-65
2021/12/19 04:19:20;;;;;;;5.72;4.45;;;7.30;99.90;;;7.48;73.58;101895.31;4898419;29;20572;-64
2021/12/19 04:21:49;;;;;;;6.20;4.20;;;7.40;99.90;;;7.32;73.89;101891.47;4899225;29;20704;-65
2021/12/19 04:24:17;;;;;;;9.75;4.00;;;7.30;99.90;;;7.35;73.60;101896.59;4898732;29;20182;-65
2021/12/19 04:26:46;;;;;;;5.47;4.28;;;7.30;99.90;;;7.29;73.63;101882.88;4899444;29;20230;-64
2021/12/19 04:29:14;;;;;;;10.93;4.90;;;7.30;99.90;;;7.36;73.40;101900.94;4899144;29;20222;-66
2021/12/19 04:31:43;;;;;;;8.45;5.25;;;7.30;99.90;;;7.33;73.26;101908.50;4899239;29;20195;-65
2021/12/19 04:34:14;;;;;;;7.53;4.97;;;7.30;99.90;;;7.34;73.34;101900.25;4898357;29;20277;-64
2021/12/19 04:36:44;;;;;;;7.05;4.35;;;7.30;99.90;;;7.37;73.45;101893.72;4898411;29;20194;-65
2021/12/19 04:42:46;;;;;;;6.70;5.70;;;7.40;99.90;;;7.33;73.13;101871.66;4895851;29;20238;-65
2021/12/19 04:53:29;;;;;;;6.13;4.55;;;7.20;99.90;;;7.26;73.77;101885.91;4897039;29;20659;-66
2021/12/19 04:56:20;;;;;;;6.20;4.55;;;7.30;99.90;;;7.21;73.80;101889.03;4896892;29;20557;-63
2021/12/19 05:04:40;;;;;;;6.85;5.07;;;7.10;99.90;;;7.07;74.63;101873.44;4893067;29;20582;-64
2021/12/19 05:15:33;;;;;;;7.55;4.45;;;7.10;99.90;;;7.13;74.57;101864.75;4894992;29;20297;-66
2021/12/19 05:18:06;;;;;;;10.32;5.70;;;7.10;99.90;;;7.12;74.59;101863.06;4896469;29;20288;-65
2021/12/19 05:20:36;;;;;;;8.38;5.43;;;7.10;99.90;;;7.02;75.10;101856.09;4896603;29;20198;-64
2021/12/19 05:23:12;;;;;;;8.68;4.25;;;7.00;99.90;;;7.04;74.98;101851.38;4896778;29;20220;-65
2021/12/19 05:25:41;;;;;;;12.35;6.22;;;7.00;99.90;;;6.95;75.34;101855.88;4896461;29;20204;-65
2021/12/19 05:28:09;;;;;;;9.52;4.78;;;7.00;99.90;;;6.98;74.86;101850.16;4895544;29;20576;-66
2021/12/19 05:30:38;;;;;;;7.15;4.60;;;7.00;99.90;;;7.01;74.93;101855.25;4896675;29;20627;-65
2021/12/19 05:33:07;;;;;;;13.18;5.10;;;6.90;99.90;;;7.10;74.69;101859.69;4895457;29;20306;-63
2021/12/19 05:35:57;;;;;;;8.02;5.00;;;7.00;99.90;;;7.05;74.79;101855.78;4897055;29;20201;-65
2021/12/19 05:45:12;;;;;;;8.60;4.20;;;6.90;99.90;;;6.85;75.91;101861.34;4886240;29;20244;-65
2021/12/19 05:47:00;;;;;;;7.50;4.00;;;6.90;99.90;;;6.85;75.66;101860.47;4896554;29;20190;-65
2021/12/19 05:49:29;;;;;;;5.93;4.18;;;6.80;99.90;;;6.95;75.03;101856.72;4896285;29;20279;-64
2021/12/19 05:51:58;;;;;;;8.32;3.65;;;6.90;99.90;;;6.99;75.24;101854.53;4896399;29;20305;-65
2021/12/19 05:54:28;;;;;;;4.47;3.55;;;6.90;99.90;;;6.95;74.70;101856.72;4896243;29;20277;-64
2021/12/19 05:56:57;;;;;;;7.63;3.33;;;6.90;99.90;;;6.95;74.44;101851.31;4896376;29;20198;-64
2021/12/19 05:59:25;;;;;;;4.05;3.50;;;6.90;99.90;;;6.95;74.46;101845.09;4896388;29;20710;-64
2021/12/19 06:01:53;;;;;;;6.47;4.20;;;6.90;99.90;;;6.97;74.63;101845.81;4896366;29;20190;-65
2021/12/19 06:04:22;;;;;;;11.75;4.88;;;6.90;99.90;;;7.04;74.55;101840.63;4896174;29;20257;-63
2021/12/19 06:06:51;;;;;;;8.90;4.05;;;7.00;99.90;;;6.93;74.95;101836.31;4896109;29;20208;-64
2021/12/19 06:09:19;;;;;;;8.50;3.90;;;6.90;99.90;;;7.03;75.02;101841.63;4896013;29;20226;-66
2021/12/19 06:11:49;;;;;;;6.45;3.50;;;6.90;99.90;;;6.96;74.15;101836.88;4896114;29;20543;-64
2021/12/19 06:14:18;;;;;;;7.70;2.80;;;6.90;99.90;;;6.97;73.76;101838.53;4896344;29;20671;-66
2021/12/19 06:16:46;;;;;;;10.45;3.30;;;6.90;99.90;;;6.96;74.47;101836.03;4895894;29;20186;-64
2021/12/19 06:19:15;;;;;;;8.90;3.10;;;6.90;99.90;;;6.88;74.99;101822.50;4895932;29;20217;-66
2021/12/19 06:21:43;;;;;;;8.48;3.20;;;6.90;99.90;;;6.91;75.13;101832.97;4895992;29;20667;-66
2021/12/19 06:24:11;;;;;;;5.28;3.03;;;6.90;99.90;;;6.85;75.10;101828.19;4896160;29;20600;-65
2021/12/19 06:26:40;;;;;;;5.20;3.22;;;6.80;99.90;;;6.90;74.58;101826.72;4896963;29;20240;-65
2021/12/19 06:29:10;;;;;;;10.20;4.40;;;6.90;99.90;;;6.91;74.53;101814.13;4896188;29;20424;-65
2021/12/19 06:31:38;;;;;;;5.82;4.28;;;6.90;99.90;;;6.95;74.33;101807.44;4896052;29;20742;-65
2021/12/19 06:34:07;;;;;;;11.48;4.05;;;6.90;99.90;;;6.95;74.36;101816.34;4895585;29;20202;-65
2021/12/19 06:36:37;;;;;;;7.07;2.78;;;6.90;99.90;;;6.95;74.73;101808.28;4896210;29;20666;-65
2021/12/19 06:39:05;;;;;;;8.40;3.25;;;6.90;99.90;;;6.86;75.38;101813.75;4897994;29;20751;-65
2021/12/19 06:41:36;;;;;;;7.93;4.05;;;6.90;99.90;;;6.86;75.03;101803.84;4899529;29;20182;-65
2021/12/19 06:44:06;;;;;;;4.85;3.25;;;6.80;99.90;;;6.86;74.88;101800.28;4899953;29;20193;-65
2021/12/19 06:46:36;;;;;;;6.10;3.63;;;6.80;99.90;;;6.85;75.28;101795.91;4899727;29;20221;-65
2021/12/19 06:49:05;;;;;;;4.63;3.47;;;6.80;99.90;;;6.92;75.07;101787.03;4961976;23;21140;-64
2021/12/19 06:51:35;;;;;;;7.55;3.40;;;6.90;99.90;;;6.91;75.05;101803.38;4886681;29;20743;-64
2021/12/19 06:54:05;;;;;;;4.35;4.00;;;6.80;99.90;;;6.80;74.07;101814.38;4900466;29;20182;-64
2021/12/19 06:56:34;;;;;;;4.28;3.05;;;6.80;99.90;;;6.85;74.55;101798.59;4900613;29;20189;-62
2021/12/19 06:59:04;;;;;;;3.78;1.90;;;6.80;99.90;;;6.82;74.16;101791.69;4901732;29;20695;-64
2021/12/19 07:01:32;;;;;;;5.38;2.15;;;6.80;99.90;;;6.85;74.17;101806.66;4902214;29;20438;-63
2021/12/19 07:04:02;;;;;;;4.22;1.83;;;6.80;99.90;;;6.81;73.70;101805.28;4902207;29;20187;-64
2021/12/19 07:06:32;;;;;;;4.65;1.75;;;6.80;99.90;;;6.80;74.13;101792.84;4901904;29;20181;-64
2021/12/19 07:09:01;;;;;;;5.03;2.10;;;6.80;99.90;;;6.78;73.79;101813.66;4901756;29;20225;-65
2021/12/19 07:11:29;;;;;;;4.80;1.85;;;6.80;99.90;;;6.83;73.94;101800.59;4900531;29;20182;-63
2021/12/19 07:13:58;;;;;;;4.53;2.70;;;6.80;99.90;;;6.84;73.79;101799.59;4900702;29;20206;-63
2021/12/19 07:16:33;;;;;;;5.90;2.22;;;6.80;99.90;;;6.83;74.00;101797.91;4900734;29;20723;-64
2021/12/19 07:19:03;;;;;;;2.35;1.67;;;6.80;99.90;;;6.88;73.34;101785.66;4899937;29;20220;-63
2021/12/19 07:21:31;;;;;;;4.32;1.73;;;6.80;99.90;;;6.87;73.66;101788.53;4900409;29;20186;-64
2021/12/19 07:24:00;;;;;;;5.40;1.88;;;6.80;99.90;;;6.89;73.31;101762.31;4900199;29;20182;-64
2021/12/19 07:26:29;;;;;;;9.70;2.00;;;6.80;99.90;;;6.84;74.03;101776.22;4898791;29;20651;-63
2021/12/19 07:28:58;;;;;;;5.82;2.45;;;6.80;99.90;;;6.87;74.04;101777.78;4899606;29;20210;-64
2021/12/19 07:31:29;;;;;;;5.30;2.28;;;6.80;99.90;;;6.90;74.36;101782.81;4900279;29;20186;-64
2021/12/19 07:33:58;;;;;;;3.42;1.98;;;6.80;99.90;;;6.78;75.11;101774.16;4899710;29;20182;-63
2021/12/19 07:36:36;;;;;;;7.72;3.25;;;6.80;99.90;;;6.74;75.73;101758.47;4899922;29;20202;-64
2021/12/19 07:39:09;;;;;;;9.98;3.40;;;6.70;99.90;;;6.79;76.29;101764.25;4899604;29;20261;-64
2021/12/19 07:41:38;;;;;;;4.28;3.50;;;6.70;99.90;;;6.75;77.15;101765.56;4899547;29;20182;-62
2021/12/19 07:44:07;;;;;;;11.55;6.15;;;6.70;99.90;;;6.71;76.90;101772.25;4898500;29;20671;-64
2021/12/19 07:46:36;;;;;;;3.85;3.35;;;6.70;99.90;;;6.65;77.28;101765.66;4899456;29;20182;-64
2021/12/19 07:49:04;;;;;;;10.10;2.40;;;6.70;99.90;;;6.75;77.12;101755.66;4899400;29;20229;-64
2021/12/19 07:51:34;;;;;;;4.68;2.22;;;6.70;99.90;;;6.73;77.46;101757.63;4898970;29;20182;-64
2021/12/19 07:54:03;;;;;;;3.70;2.25;;;6.70;99.90;;;6.70;77.42;101754.41;4900340;29;20560;-61
2021/12/19 07:56:32;;;;;;;2.92;2.25;;;6.70;99.90;;;6.64;77.93;101757.72;4900033;29;20198;-65
2021/12/19 07:59:00;;;;;;;5.53;2.00;;;6.60;99.90;;;6.54;78.46;101747.91;4900295;29;20222;-64
2021/12/19 08:01:29;;;;;;;3.92;1.40;;;6.60;99.90;;;6.38;79.26;101761.22;4899865;29;20186;-64
2021/12/19 08:03:57;;;;;;;1.75;1.40;;;6.40;99.90;;;6.36;79.53;101760.53;4900490;29;20175;-64
2021/12/19 08:06:27;;;;;;;5.45;1.60;;;6.40;99.90;;;6.40;79.95;101755.66;4900669;29;20349;-64
2021/12/19 08:08:58;;;;;;;5.45;1.75;;;6.40;99.90;;;6.45;79.87;101748.00;4900322;29;20214;-64
2021/12/19 08:11:41;;;;;;;3.05;1.63;;;6.40;99.90;;;6.41;79.92;101744.78;4900388;29;20229;-64
2021/12/19 08:14:12;;;;;;;4.20;1.20;;;6.40;99.90;;;6.36;80.34;101740.84;4900248;29;20604;-64
2021/12/19 08:16:43;;;;;;;3.10;1.95;;;6.40;99.90;;;6.42;80.32;101742.94;4900081;29;20217;-64
2021/12/19 08:19:13;;;;;;;2.83;1.88;;;6.40;99.90;;;6.32;80.90;101732.25;4899936;29;20273;-64
2021/12/19 08:21:42;;;;;;;2.10;1.35;;;6.30;99.90;;;6.24;81.16;101731.34;4899873;29;20182;-64
2021/12/19 08:24:13;;;;;;;2.50;1.20;;;6.30;99.90;;;6.31;81.17;101727.03;4899920;29;20186;-64
2021/12/19 08:26:45;;;;;;;2.10;1.45;;;6.30;99.90;;;6.35;81.49;101726.56;4900146;29;20220;-64
2021/12/19 08:29:14;;;;;;;2.30;2.10;;;6.30;99.90;;;6.31;81.70;101725.19;4899740;29;20214;-63
2021/12/19 08:31:43;;;;;;;2.38;1.73;;;6.30;99.90;;;6.33;81.22;101711.59;4899745;29;20178;-64
2021/12/19 08:34:17;;;;;;;7.70;2.40;;;6.30;99.90;;;6.43;81.84;101720.44;4899438;29;20171;-63
2021/12/19 08:36:45;;;;;;;5.20;2.13;;;6.30;99.90;;;6.42;81.24;101716.88;4899363;29;20178;-64
2021/12/19 08:39:15;;;;;;;4.60;1.85;;;6.40;99.90;;;6.36;81.50;101720.19;4899516;29;20218;-64
2021/12/19 08:41:43;;;;;;;1.92;1.60;;;6.30;99.90;;;6.33;81.27;101709.75;4899705;29;20175;-63
2021/12/19 08:44:12;;;;;;;6.70;2.00;;;6.30;99.90;;;6.22;81.95;101706.44;4898602;29;20183;-63
2021/12/19 08:46:45;;;;;;;3.03;1.77;;;6.20;99.90;;;6.25;82.04;101708.81;4898792;29;20667;-65
2021/12/19 08:49:15;;;;;;;2.55;1.73;;;6.20;99.90;;;6.36;82.00;101713.97;4898057;29;20641;-66
2021/12/19 08:51:43;;;;;;;2.58;1.90;;;6.30;99.90;;;6.31;81.88;101719.81;4880160;29;20203;-64
2021/12/19 08:54:12;;;;;;;4.03;2.03;;;6.30;99.90;;;6.26;82.34;101721.25;4879848;29;20183;-65
2021/12/19 08:56:41;;;;;;;3.13;1.98;;;6.30;99.90;;;6.35;82.26;101715.81;4879749;29;20188;-64
2021/12/19 08:59:11;;;;;;;2.97;1.73;;;6.30;99.90;;;6.47;82.78;101722.66;4879747;29;20278;-63
2021/12/19 09:01:40;;;;;;;2.75;2.05;;;6.40;99.90;;;6.40;81.80;101713.50;4879319;29;20266;-65
2021/12/19 09:04:09;;;;;;;5.47;1.52;;;6.40;99.90;;;6.43;82.59;101704.28;4880281;29;20195;-63
2021/12/19 09:06:38;;;;;;;4.30;1.60;;;6.40;99.90;;;6.41;82.80;101704.44;4880112;29;20190;-64
2021/12/19 09:09:07;;;;;;;2.95;1.83;;;6.40;99.90;;;6.32;82.22;101708.06;4880281;29;20209;-64
2021/12/19 09:11:35;;;;;;;2.33;1.42;;;6.30;99.90;;;6.31;82.55;101692.09;4879528;29;20214;-64
2021/12/19 09:14:05;;;;;;;3.17;2.05;;;6.30;99.90;;;6.36;82.87;101703.22;4879215;29;20211;-64
2021/12/19 09:16:34;;;;;;;3.05;1.33;;;6.30;99.90;;;6.23;83.45;101692.88;4879375;29;20179;-63
2021/12/19 09:19:13;;;;;;;2.70;1.60;;;6.20;99.90;;;6.30;83.40;101693.91;4879163;29;20215;-64
2021/12/19 09:21:42;;;;;;;1.95;1.65;;;6.30;99.90;;;6.42;83.67;101691.84;4879145;29;20183;-64
2021/12/19 09:24:11;;;;;;;3.90;1.77;;;6.30;99.90;;;6.29;82.92;101686.88;4879144;29;20171;-65
2021/12/19 09:26:40;;;;;;;5.78;2.60;;;6.30;99.90;;;6.33;82.93;101679.34;4879507;29;20183;-64
2021/12/19 09:29:10;;;;;;;3.63;2.40;;;6.30;99.90;;;6.32;83.09;101677.66;4878956;29;20767;-64
2021/12/19 09:31:39;;;;;;;3.53;2.35;;;6.30;99.90;;;6.36;83.18;101671.81;4878970;29;20209;-63
2021/12/19 09:34:07;;;;;;;5.35;2.13;;;6.40;99.90;;;6.31;82.46;101668.72;4878993;29;20175;-65
2021/12/19 09:36:37;;;;;;;5.85;2.60;;;6.30;99.90;;;6.30;82.81;101671.56;4877498;29;20289;-63
2021/12/19 09:39:07;;;;;;;5.03;3.03;;;6.30;99.90;;;6.41;82.59;101677.56;4879264;29;20264;-65
2021/12/19 09:41:43;;;;;;;4.68;2.70;;;6.30;99.90;;;6.43;82.26;101677.41;4879098;29;20183;-64
2021/12/19 09:44:15;;;;;;;6.05;3.00;;;6.40;99.90;;;6.46;82.29;101683.31;4879438;29;20179;-63
2021/12/19 09:46:46;;;;;;;5.25;2.63;;;6.40;99.90;;;6.42;82.31;101687.31;4879406;29;20202;-63
2021/12/19 09:49:19;;;;;;;4.95;2.50;;;6.40;99.90;;;6.41;82.38;101674.88;4879227;29;20233;-64
2021/12/19 09:51:52;;;;;;;5.75;3.15;;;6.30;99.90;;;6.47;82.44;101668.88;4878869;29;20210;-64
2021/12/19 09:54:21;;;;;;;5.90;2.53;;;6.40;99.90;;;6.47;82.67;101668.03;4879203;29;20214;-63
2021/12/19 09:56:50;;;;;;;4.15;2.90;;;6.40;99.90;;;6.44;82.50;101669.16;4879859;29;20186;-62
2021/12/19 09:59:23;;;;;;;5.65;2.33;;;6.40;99.90;;;6.32;82.29;101658.84;4880865;29;20223;-65
2021/12/19 10:01:53;;;;;;;5.30;2.92;;;6.30;99.90;;;6.41;82.41;101647.13;4880645;29;20175;-65
2021/12/19 10:04:34;;;;;;;3.50;1.70;;;6.40;99.90;;;6.38;82.07;101637.56;4880566;29;20186;-64
2021/12/19 10:07:18;;;;;;;3.42;2.88;;;6.30;99.90;;;6.35;82.34;101640.53;4880424;29;20231;-63
2021/12/19 10:09:59;;;;;;;5.30;2.80;;;6.40;99.90;;;6.47;82.35;101628.53;4879358;29;20238;-64
2021/12/19 10:12:48;;;;;;;9.27;2.75;;;6.40;99.90;;;6.38;81.89;101626.78;4879155;29;20262;-64
2021/12/19 10:15:22;;;;;;;6.00;2.13;;;6.40;99.90;;;6.41;82.09;101622.94;4882548;29;20552;-64
2021/12/19 10:18:05;;;;;;;6.18;2.00;;;6.40;99.90;;;6.43;81.51;101629.84;4882609;29;20179;-64
2021/12/19 10:20:48;;;;;;;2.25;1.27;;;6.40;99.90;;;6.36;82.18;101623.41;4882868;29;20226;-64
2021/12/19 10:23:21;;;;;;;3.67;2.22;;;6.40;99.90;;;6.48;81.99;101615.94;4882306;29;20189;-64
2021/12/19 10:26:03;;;;;;;2.15;1.40;;;6.40;99.90;;;6.37;82.09;101619.72;4882464;29;20214;-64
2021/12/19 10:28:33;;;;;;;4.00;1.80;;;6.40;99.90;;;6.47;82.42;101609.72;4882699;29;20183;-64
2021/12/19 10:31:04;;;;;;;4.80;1.58;;;6.40;99.90;;;6.45;81.56;101625.16;4883380;29;20312;-66
2021/12/19 10:33:36;;;;;;;7.28;2.00;;;6.40;99.90;;;6.33;81.70;101610.28;4881977;29;20199;-65
2021/12/19 10:36:09;;;;;;;3.00;1.65;;;6.40;99.90;;;6.49;82.44;101599.63;4882449;29;20270;-64
2021/12/19 10:38:43;;;;;;;4.95;1.77;;;6.40;99.90;;;6.65;81.45;101595.34;4882685;29;20187;-66
2021/12/19 10:41:15;;;;;;;3.88;1.75;;;6.50;99.90;;;6.64;81.23;101605.25;4882775;29;20179;-64
2021/12/19 10:43:46;;;;;;;11.02;4.43;;;6.60;99.90;;;6.72;81.06;101607.19;4882511;29;20195;-65
2021/12/19 10:46:16;;;;;;;4.72;2.15;;;6.60;99.90;;;6.58;81.17;101605.06;4882626;29;20187;-67
2021/12/19 10:48:45;;;;;;;4.63;1.50;;;6.60;99.90;;;6.48;81.51;101600.66;4882485;29;20199;-60
2021/12/19 10:51:16;;;;;;;6.07;2.10;;;6.50;99.90;;;6.50;81.79;101601.31;4882081;29;20214;-64
2021/12/19 10:53:49;;;;;;;6.00;2.30;;;6.50;99.90;;;6.58;82.07;101597.00;4882881;29;20635;-63
2021/12/19 10:56:22;;;;;;;3.53;1.77;;;6.50;99.90;;;6.48;81.56;101606.03;4882300;29;20740;-65
2021/12/19 10:58:55;;;;;;;7.65;2.15;;;6.50;99.90;;;6.54;82.13;101594.63;4882207;29;20211;-63
2021/12/19 11:01:30;;;;;;;4.85;2.33;;;6.50;99.90;;;6.64;82.05;101593.66;4882182;29;20183;-64
2021/12/19 11:04:02;;;;;;;2.95;2.50;;;6.60;99.90;;;6.73;82.63;101598.09;4882461;29;20270;-64
2021/12/19 11:06:42;;;;;;;2.80;2.08;;;6.70;99.90;;;6.82;81.81;101587.22;4881972;29;20191;-64
2021/12/19 11:09:14;;;;;;;2.75;1.60;;;6.70;99.90;;;6.77;81.29;101586.03;4881948;29;20297;-63
2021/12/19 11:11:51;;;;;;;4.45;1.80;;;6.70;99.90;;;6.92;81.01;101582.53;4881951;29;20199;-65
2021/12/19 11:14:24;;;;;;;3.95;2.33;;;6.80;99.90;;;6.82;80.92;101564.84;4882126;29;20187;-64
2021/12/19 11:16:57;;;;;;;8.43;2.65;;;6.80;99.90;;;7.03;80.86;101561.72;4881869;29;20190;-64
2021/12/19 11:19:28;;;;;;;3.85;1.85;;;6.90;99.90;;;6.99;81.17;101556.69;4881751;29;20238;-64
2021/12/19 11:22:23;;;;;;;7.78;2.22;;;6.90;99.90;;;6.92;81.31;101542.19;4881701;29;20187;-61
2021/12/19 11:24:55;;;;;;;4.53;1.85;;;6.90;99.90;;;6.91;81.37;101526.22;4880668;29;20198;-63
2021/12/19 11:27:24;;;;;;;4.25;2.42;;;6.80;99.90;;;7.03;81.40;101526.75;4882181;29;20183;-63
2021/12/19 11:29:54;;;;;;;3.55;2.03;;;6.90;99.90;;;6.88;80.91;101521.13;4881892;29;20256;-63
2021/12/19 11:32:33;;;;;;;7.22;3.28;;;6.90;99.90;;;6.91;80.81;101526.22;4881620;29;20199;-63